sensor_id;sensor_type;location;lat;lon;timestamp;pressure;altitude;pressure_sealevel;temperature;humidity
73143;BME280;61343;53.694;9.988;2022-09-09T00:00:13;100550.19;;;14.57;100.00
73143;BME280;61343;53.694;9.988;2022-09-09T00:02:44;100545.63;;;14.57;100.00
73143;BME280;61343;53.694;9.988;2022-09-09T00:07:53;100543.34;;;14.49;100.00
73143;BME280;61343;53.694;9.988;2022-09-09T00:10:30;100545.44;;;14.47;100.00
73143;BME280;61343;53.694;9.988;2022-09-09T00:13:16;100546.41;;;14.41;100.00
73143;BME280;61343;53.694;9.988;2022-09-09T00:15:56;100536.81;;;14.45;100.00
73143;BME280;61343;53.694;9.988;2022-09-09T00:18:32;100542.50;;;14.48;100.00
73143;BME280;61343;53.694;9.988;2022-09-09T00:21:11;100542.50;;;14.48;100.00
73143;BME280;61343;53.694;9.988;2022-09-09T00:23:39;100535.56;;;14.52;100.00
73143;BME280;61343;53.694;9.988;2022-09-09T00:26:22;100542.09;;;14.57;100.00
73143;BME280;61343;53.694;9.988;2022-09-09T00:29:00;100535.19;;;14.61;100.00
73143;BME280;61343;53.694;9.988;2022-09-09T00:31:30;100538.94;;;14.60;100.00
73143;BME280;61343;53.694;9.988;2022-09-09T00:34:03;100542.19;;;14.62;100.00
73143;BME280;61343;53.694;9.988;2022-09-09T00:36:31;100541.13;;;14.63;100.00
73143;BME280;61343;53.694;9.988;2022-09-09T00:39:00;100533.06;;;14.63;100.00
73143;BME280;61343;53.694;9.988;2022-09-09T00:52:48;100524.97;;;14.63;100.00
73143;BME280;61343;53.694;9.988;2022-09-09T00:55:31;100529.88;;;14.66;100.00
73143;BME280;61343;53.694;9.988;2022-09-09T00:57:58;100537.28;;;14.59;100.00
73143;BME280;61343;53.694;9.988;2022-09-09T01:03:18;100538.09;;;14.59;99.76
73143;BME280;61343;53.694;9.988;2022-09-09T01:08:43;100535.66;;;14.58;99.18
73143;BME280;61343;53.694;9.988;2022-09-09T01:14:05;100536.16;;;14.55;99.95
73143;BME280;61343;53.694;9.988;2022-09-09T01:16:36;100539.41;;;14.57;99.89
73143;BME280;61343;53.694;9.988;2022-09-09T01:19:02;100544.06;;;14.61;99.73
73143;BME280;61343;53.694;9.988;2022-09-09T01:21:34;100526.84;;;14.62;99.90
73143;BME280;61343;53.694;9.988;2022-09-09T01:24:42;100527.66;;;14.63;99.83
73143;BME280;61343;53.694;9.988;2022-09-09T01:27:11;100529.31;;;14.64;99.96
73143;BME280;61343;53.694;9.988;2022-09-09T01:29:37;100531.66;;;14.60;99.67
73143;BME280;61343;53.694;9.988;2022-09-09T01:35:04;100526.50;;;14.59;100.00
73143;BME280;61343;53.694;9.988;2022-09-09T01:37:30;100534.53;;;14.53;100.00
73143;BME280;61343;53.694;9.988;2022-09-09T01:39:56;100525.47;;;14.60;100.00
73143;BME280;61343;53.694;9.988;2022-09-09T01:42:21;100521.47;;;14.62;100.00
73143;BME280;61343;53.694;9.988;2022-09-09T01:44:46;100525.53;;;14.65;100.00
73143;BME280;61343;53.694;9.988;2022-09-09T01:47:12;100530.91;;;14.65;100.00
73143;BME280;61343;53.694;9.988;2022-09-09T01:49:37;100534.19;;;14.67;100.00
73143;BME280;61343;53.694;9.988;2022-09-09T01:52:02;100531.25;;;14.68;100.00
73143;BME280;61343;53.694;9.988;2022-09-09T01:54:31;100531.59;;;14.72;100.00
73143;BME280;61343;53.694;9.988;2022-09-09T02:00:05;100519.75;;;14.73;100.00
73143;BME280;61343;53.694;9.988;2022-09-09T02:02:58;100519.38;;;14.64;100.00
73143;BME280;61343;53.694;9.988;2022-09-09T02:05:46;100520.50;;;14.68;100.00
73143;BME280;61343;53.694;9.988;2022-09-09T02:08:21;100512.09;;;14.65;100.00
73143;BME280;61343;53.694;9.988;2022-09-09T02:13:29;100526.34;;;14.65;100.00
73143;BME280;61343;53.694;9.988;2022-09-09T02:18:42;100521.31;;;14.69;100.00
73143;BME280;61343;53.694;9.988;2022-09-09T02:21:09;100522.09;;;14.52;100.00
73143;BME280;61343;53.694;9.988;2022-09-09T02:23:38;100532.88;;;14.52;100.00
73143;BME280;61343;53.694;9.988;2022-09-09T02:26:05;100530.44;;;14.51;100.00
73143;BME280;61343;53.694;9.988;2022-09-09T02:28:34;100525.41;;;14.55;100.00
73143;BME280;61343;53.694;9.988;2022-09-09T02:31:01;100530.78;;;14.55;100.00
73143;BME280;61343;53.694;9.988;2022-09-09T02:33:29;100517.25;;;14.49;100.00
73143;BME280;61343;53.694;9.988;2022-09-09T02:35:57;100513.47;;;14.50;100.00
73143;BME280;61343;53.694;9.988;2022-09-09T02:38:29;100510.22;;;14.48;100.00
73143;BME280;61343;53.694;9.988;2022-09-09T02:40:57;100522.03;;;14.47;100.00
73143;BME280;61343;53.694;9.988;2022-09-09T02:43:23;100513.47;;;14.50;100.00
73143;BME280;61343;53.694;9.988;2022-09-09T02:51:02;100515.13;;;14.51;100.00
73143;BME280;61343;53.694;9.988;2022-09-09T02:53:43;100509.72;;;14.51;100.00
73143;BME280;61343;53.694;9.988;2022-09-09T02:56:19;100518.38;;;14.53;100.00
73143;BME280;61343;53.694;9.988;2022-09-09T02:58:46;100527.69;;;14.46;100.00
73143;BME280;61343;53.694;9.988;2022-09-09T03:01:11;100521.47;;;14.45;100.00
73143;BME280;61343;53.694;9.988;2022-09-09T03:03:37;100516.03;;;14.40;100.00
73143;BME280;61343;53.694;9.988;2022-09-09T03:06:03;100523.59;;;14.43;100.00
73143;BME280;61343;53.694;9.988;2022-09-09T03:08:28;100521.81;;;14.49;100.00
73143;BME280;61343;53.694;9.988;2022-09-09T03:10:54;100523.13;;;14.46;100.00
73143;BME280;61343;53.694;9.988;2022-09-09T03:13:20;100517.47;;;14.48;99.72
73143;BME280;61343;53.694;9.988;2022-09-09T03:15:45;100519.69;;;14.34;99.79
73143;BME280;61343;53.694;9.988;2022-09-09T03:18:10;100522.94;;;14.36;100.00
73143;BME280;61343;53.694;9.988;2022-09-09T03:20:36;100527.63;;;14.29;100.00
73143;BME280;61343;53.694;9.988;2022-09-09T03:23:01;100524.81;;;14.36;100.00
73143;BME280;61343;53.694;9.988;2022-09-09T03:25:27;100524.84;;;14.24;99.80
73143;BME280;61343;53.694;9.988;2022-09-09T03:27:55;100529.75;;;14.27;100.00
73143;BME280;61343;53.694;9.988;2022-09-09T03:30:22;100532.69;;;14.26;100.00
73143;BME280;61343;53.694;9.988;2022-09-09T03:32:48;100531.03;;;14.25;100.00
73143;BME280;61343;53.694;9.988;2022-09-09T03:35:13;100520.03;;;14.26;100.00
73143;BME280;61343;53.694;9.988;2022-09-09T03:37:38;100516.84;;;14.29;100.00
73143;BME280;61343;53.694;9.988;2022-09-09T03:40:04;100527.03;;;14.27;100.00
73143;BME280;61343;53.694;9.988;2022-09-09T03:42:29;100519.94;;;14.21;99.78
73143;BME280;61343;53.694;9.988;2022-09-09T03:44:56;100521.94;;;14.26;100.00
73143;BME280;61343;53.694;9.988;2022-09-09T03:47:22;100524.34;;;14.27;100.00
73143;BME280;61343;53.694;9.988;2022-09-09T03:49:48;100525.41;;;14.26;100.00
73143;BME280;61343;53.694;9.988;2022-09-09T03:52:14;100527.16;;;14.32;99.90
73143;BME280;61343;53.694;9.988;2022-09-09T03:54:40;100528.19;;;14.31;99.48
73143;BME280;61343;53.694;9.988;2022-09-09T03:57:06;100530.78;;;14.26;99.60
73143;BME280;61343;53.694;9.988;2022-09-09T03:59:32;100530.91;;;14.31;99.34
73143;BME280;61343;53.694;9.988;2022-09-09T04:01:57;100520.84;;;14.27;99.20
73143;BME280;61343;53.694;9.988;2022-09-09T04:04:24;100523.78;;;14.25;99.44
73143;BME280;61343;53.694;9.988;2022-09-09T04:06:49;100526.16;;;14.22;99.12
73143;BME280;61343;53.694;9.988;2022-09-09T04:09:15;100530.22;;;14.24;98.89
73143;BME280;61343;53.694;9.988;2022-09-09T04:11:41;100529.19;;;14.25;98.71
73143;BME280;61343;53.694;9.988;2022-09-09T04:14:06;100534.44;;;14.20;98.64
73143;BME280;61343;53.694;9.988;2022-09-09T04:16:32;100542.75;;;14.02;99.58
73143;BME280;61343;53.694;9.988;2022-09-09T04:18:58;100538.34;;;14.13;99.83
73143;BME280;61343;53.694;9.988;2022-09-09T04:21:24;100543.88;;;14.06;99.30
73143;BME280;61343;53.694;9.988;2022-09-09T04:23:50;100550.75;;;14.14;99.05
73143;BME280;61343;53.694;9.988;2022-09-09T04:26:16;100550.50;;;14.15;99.05
73143;BME280;61343;53.694;9.988;2022-09-09T04:28:41;100541.38;;;14.16;99.02
73143;BME280;61343;53.694;9.988;2022-09-09T04:31:08;100543.47;;;14.14;99.15
73143;BME280;61343;53.694;9.988;2022-09-09T04:33:35;100553.09;;;14.10;98.73
73143;BME280;61343;53.694;9.988;2022-09-09T04:36:00;100552.03;;;14.11;99.03
73143;BME280;61343;53.694;9.988;2022-09-09T04:38:25;100555.22;;;14.08;99.04
73143;BME280;61343;53.694;9.988;2022-09-09T04:40:51;100551.25;;;14.11;98.95
73143;BME280;61343;53.694;9.988;2022-09-09T04:43:19;100550.75;;;14.14;98.56
73143;BME280;61343;53.694;9.988;2022-09-09T04:45:47;100552.06;;;13.99;98.59
73143;BME280;61343;53.694;9.988;2022-09-09T04:48:13;100557.91;;;14.08;98.91
73143;BME280;61343;53.694;9.988;2022-09-09T04:50:39;100556.84;;;14.09;98.58
73143;BME280;61343;53.694;9.988;2022-09-09T04:53:05;100565.59;;;14.16;98.40
73143;BME280;61343;53.694;9.988;2022-09-09T04:55:32;100559.94;;;14.18;98.50
73143;BME280;61343;53.694;9.988;2022-09-09T04:57:57;100568.03;;;14.18;98.38
73143;BME280;61343;53.694;9.988;2022-09-09T05:00:24;100564.50;;;14.17;98.08
73143;BME280;61343;53.694;9.988;2022-09-09T05:02:49;100563.38;;;14.13;97.69
73143;BME280;61343;53.694;9.988;2022-09-09T05:05:14;100560.59;;;14.08;97.90
73143;BME280;61343;53.694;9.988;2022-09-09T05:07:40;100559.03;;;14.12;98.42
73143;BME280;61343;53.694;9.988;2022-09-09T05:10:05;100556.84;;;14.09;98.25
73143;BME280;61343;53.694;9.988;2022-09-09T05:12:31;100559.59;;;14.14;98.49
73143;BME280;61343;53.694;9.988;2022-09-09T05:14:57;100554.63;;;14.06;98.16
73143;BME280;61343;53.694;9.988;2022-09-09T05:17:22;100558.72;;;14.09;98.12
73143;BME280;61343;53.694;9.988;2022-09-09T05:19:47;100572.50;;;14.12;97.82
73143;BME280;61343;53.694;9.988;2022-09-09T05:22:13;100567.16;;;14.01;98.24
73143;BME280;61343;53.694;9.988;2022-09-09T05:24:42;100565.53;;;13.99;97.99
73143;BME280;61343;53.694;9.988;2022-09-09T05:27:09;100576.31;;;13.88;98.49
73143;BME280;61343;53.694;9.988;2022-09-09T05:29:37;100566.72;;;13.92;98.37
73143;BME280;61343;53.694;9.988;2022-09-09T05:32:03;100577.06;;;13.83;99.11
73143;BME280;61343;53.694;9.988;2022-09-09T05:34:28;100572.25;;;13.85;98.57
73143;BME280;61343;53.694;9.988;2022-09-09T05:36:54;100576.91;;;13.90;98.77
73143;BME280;61343;53.694;9.988;2022-09-09T05:39:19;100573.63;;;13.88;98.30
73143;BME280;61343;53.694;9.988;2022-09-09T05:41:44;100574.78;;;13.92;98.34
73143;BME280;61343;53.694;9.988;2022-09-09T05:44:09;100571.84;;;13.93;97.94
73143;BME280;61343;53.694;9.988;2022-09-09T05:46:35;100581.09;;;13.97;98.18
73143;BME280;61343;53.694;9.988;2022-09-09T05:49:02;100582.47;;;14.00;98.08
73143;BME280;61343;53.694;9.988;2022-09-09T05:51:28;100589.63;;;13.94;98.00
73143;BME280;61343;53.694;9.988;2022-09-09T05:53:55;100581.44;;;14.01;98.20
73143;BME280;61343;53.694;9.988;2022-09-09T05:56:25;100584.47;;;14.05;97.51
73143;BME280;61343;53.694;9.988;2022-09-09T05:58:51;100593.91;;;14.07;97.49
73143;BME280;61343;53.694;9.988;2022-09-09T06:01:21;100593.44;;;14.10;97.87
73143;BME280;61343;53.694;9.988;2022-09-09T06:03:48;100604.19;;;14.10;97.77
73143;BME280;61343;53.694;9.988;2022-09-09T06:06:18;100597.19;;;14.09;97.56
73143;BME280;61343;53.694;9.988;2022-09-09T06:08:46;100604.84;;;14.17;97.81
73143;BME280;61343;53.694;9.988;2022-09-09T06:11:17;100598.44;;;14.18;97.37
73143;BME280;61343;53.694;9.988;2022-09-09T06:13:43;100604.06;;;14.17;97.53
73143;BME280;61343;53.694;9.988;2022-09-09T06:16:14;100610.09;;;14.24;97.85
73143;BME280;61343;53.694;9.988;2022-09-09T06:18:40;100615.94;;;14.21;97.67
73143;BME280;61343;53.694;9.988;2022-09-09T06:21:09;100613.38;;;14.26;97.42
73143;BME280;61343;53.694;9.988;2022-09-09T06:23:36;100617.69;;;14.27;98.10
73143;BME280;61343;53.694;9.988;2022-09-09T06:26:09;100626.22;;;14.24;98.31
73143;BME280;61343;53.694;9.988;2022-09-09T06:28:35;100626.53;;;14.11;98.71
73143;BME280;61343;53.694;9.988;2022-09-09T06:31:03;100629.53;;;14.14;98.48
73143;BME280;61343;53.694;9.988;2022-09-09T06:33:34;100622.63;;;14.18;98.69
73143;BME280;61343;53.694;9.988;2022-09-09T06:36:01;100625.56;;;14.17;98.78
73143;BME280;61343;53.694;9.988;2022-09-09T06:38:27;100625.47;;;14.12;99.20
73143;BME280;61343;53.694;9.988;2022-09-09T06:40:57;100624.28;;;14.19;99.09
73143;BME280;61343;53.694;9.988;2022-09-09T06:43:24;100628.69;;;14.25;99.32
73143;BME280;61343;53.694;9.988;2022-09-09T06:46:00;100621.44;;;14.26;98.81
73143;BME280;61343;53.694;9.988;2022-09-09T06:48:27;100624.81;;;14.33;98.48
73143;BME280;61343;53.694;9.988;2022-09-09T06:51:07;100624.91;;;14.38;98.85
73143;BME280;61343;53.694;9.988;2022-09-09T06:53:34;100623.88;;;14.39;98.78
73143;BME280;61343;53.694;9.988;2022-09-09T06:56:01;100622.56;;;14.41;99.00
73143;BME280;61343;53.694;9.988;2022-09-09T06:58:27;100622.97;;;14.50;98.85
73143;BME280;61343;53.694;9.988;2022-09-09T07:01:04;100619.19;;;14.63;98.40
73143;BME280;61343;53.694;9.988;2022-09-09T07:03:30;100621.78;;;14.74;98.19
73143;BME280;61343;53.694;9.988;2022-09-09T07:05:56;100618.38;;;14.95;98.39
73143;BME280;61343;53.694;9.988;2022-09-09T07:08:21;100620.25;;;15.12;97.73
73143;BME280;61343;53.694;9.988;2022-09-09T07:10:47;100624.41;;;15.19;97.72
73143;BME280;61343;53.694;9.988;2022-09-09T07:13:12;100621.06;;;15.29;97.30
73143;BME280;61343;53.694;9.988;2022-09-09T07:15:40;100619.25;;;15.34;96.87
73143;BME280;61343;53.694;9.988;2022-09-09T07:18:06;100623.75;;;15.29;96.17
73143;BME280;61343;53.694;9.988;2022-09-09T07:20:31;100632.72;;;15.34;96.61
73143;BME280;61343;53.694;9.988;2022-09-09T07:22:56;100631.41;;;15.37;96.55
73143;BME280;61343;53.694;9.988;2022-09-09T07:25:23;100637.94;;;15.41;95.99
73143;BME280;61343;53.694;9.988;2022-09-09T07:27:48;100634.59;;;15.50;96.32
73143;BME280;61343;53.694;9.988;2022-09-09T07:30:14;100635.47;;;15.73;95.75
73143;BME280;61343;53.694;9.988;2022-09-09T07:32:39;100631.31;;;15.87;95.35
73143;BME280;61343;53.694;9.988;2022-09-09T07:35:05;100637.97;;;16.01;95.23
73143;BME280;61343;53.694;9.988;2022-09-09T07:37:30;100630.38;;;15.98;95.14
73143;BME280;61343;53.694;9.988;2022-09-09T07:39:56;100645.69;;;15.92;93.48
73143;BME280;61343;53.694;9.988;2022-09-09T07:42:21;100643.13;;;16.02;93.95
73143;BME280;61343;53.694;9.988;2022-09-09T07:44:46;100642.34;;;16.07;92.79
73143;BME280;61343;53.694;9.988;2022-09-09T07:47:12;100650.63;;;16.00;93.20
73143;BME280;61343;53.694;9.988;2022-09-09T07:49:37;100640.78;;;15.89;92.84
73143;BME280;61343;53.694;9.988;2022-09-09T07:52:02;100639.34;;;15.82;91.62
73143;BME280;61343;53.694;9.988;2022-09-09T07:54:28;100635.22;;;15.96;93.07
73143;BME280;61343;53.694;9.988;2022-09-09T07:56:53;100650.38;;;16.02;91.89
73143;BME280;61343;53.694;9.988;2022-09-09T07:59:19;100641.34;;;16.13;91.28
73143;BME280;61343;53.694;9.988;2022-09-09T08:01:47;100648.38;;;16.14;92.56
73143;BME280;61343;53.694;9.988;2022-09-09T08:04:15;100649.19;;;16.14;91.43
73143;BME280;61343;53.694;9.988;2022-09-09T08:06:47;100652.53;;;16.00;90.18
73143;BME280;61343;53.694;9.988;2022-09-09T08:09:13;100654.03;;;15.91;90.58
73143;BME280;61343;53.694;9.988;2022-09-09T08:11:39;100649.69;;;16.11;91.43
73143;BME280;61343;53.694;9.988;2022-09-09T08:14:07;100662.56;;;16.26;91.63
73143;BME280;61343;53.694;9.988;2022-09-09T08:16:35;100663.09;;;16.28;91.97
73143;BME280;61343;53.694;9.988;2022-09-09T08:19:02;100666.75;;;16.17;91.11
73143;BME280;61343;53.694;9.988;2022-09-09T08:21:30;100670.84;;;16.19;91.44
73143;BME280;61343;53.694;9.988;2022-09-09T08:23:58;100666.31;;;16.25;91.26
73143;BME280;61343;53.694;9.988;2022-09-09T08:26:26;100670.19;;;16.34;91.59
73143;BME280;61343;53.694;9.988;2022-09-09T08:28:55;100676.59;;;16.28;90.79
73143;BME280;61343;53.694;9.988;2022-09-09T08:31:27;100674.25;;;16.37;89.87
73143;BME280;61343;53.694;9.988;2022-09-09T08:33:54;100669.38;;;16.34;88.56
73143;BME280;61343;53.694;9.988;2022-09-09T08:36:22;100669.09;;;16.57;89.42
73143;BME280;61343;53.694;9.988;2022-09-09T08:38:52;100667.28;;;16.62;88.66
73143;BME280;61343;53.694;9.988;2022-09-09T08:46:51;100682.78;;;16.50;87.33
73143;BME280;61343;53.694;9.988;2022-09-09T08:52:29;100676.38;;;16.56;86.83
73143;BME280;61343;53.694;9.988;2022-09-09T08:55:20;100680.28;;;16.44;87.33
73143;BME280;61343;53.694;9.988;2022-09-09T08:57:48;100686.75;;;16.64;88.05
73143;BME280;61343;53.694;9.988;2022-09-09T09:00:14;100680.94;;;16.78;88.28
73143;BME280;61343;53.694;9.988;2022-09-09T09:03:15;100682.69;;;16.89;87.57
73143;BME280;61343;53.694;9.988;2022-09-09T09:06:01;100687.09;;;17.00;86.55
73143;BME280;61343;53.694;9.988;2022-09-09T09:08:43;100688.31;;;17.19;85.18
73143;BME280;61343;53.694;9.988;2022-09-09T09:11:11;100693.44;;;17.52;86.37
73143;BME280;61343;53.694;9.988;2022-09-09T09:16:33;100689.59;;;17.43;83.09
73143;BME280;61343;53.694;9.988;2022-09-09T09:18:59;100687.38;;;17.35;82.99
73143;BME280;61343;53.694;9.988;2022-09-09T09:21:36;100690.28;;;17.60;83.16
73143;BME280;61343;53.694;9.988;2022-09-09T09:24:30;100690.25;;;17.55;82.75
73143;BME280;61343;53.694;9.988;2022-09-09T09:26:52;100694.06;;;17.59;83.90
73143;BME280;61343;53.694;9.988;2022-09-09T09:29:19;100689.47;;;17.60;83.40
73143;BME280;61343;53.694;9.988;2022-09-09T09:31:52;100687.09;;;17.68;80.29
73143;BME280;61343;53.694;9.988;2022-09-09T09:34:19;100688.16;;;17.62;80.38
73143;BME280;61343;53.694;9.988;2022-09-09T09:36:52;100691.50;;;17.79;82.94
73143;BME280;61343;53.694;9.988;2022-09-09T09:39:29;100689.03;;;17.78;79.77
73143;BME280;61343;53.694;9.988;2022-09-09T09:41:54;100688.25;;;17.82;78.86
73143;BME280;61343;53.694;9.988;2022-09-09T09:44:32;100694.66;;;17.71;80.62
73143;BME280;61343;53.694;9.988;2022-09-09T09:47:11;100686.31;;;17.73;81.50
73143;BME280;61343;53.694;9.988;2022-09-09T09:49:37;100689.03;;;17.78;81.06
73143;BME280;61343;53.694;9.988;2022-09-09T09:52:04;100686.63;;;17.81;78.95
73143;BME280;61343;53.694;9.988;2022-09-09T09:54:37;100695.25;;;17.73;80.84
73143;BME280;61343;53.694;9.988;2022-09-09T09:57:10;100700.44;;;17.80;81.04
73143;BME280;61343;53.694;9.988;2022-09-09T09:59:36;100696.16;;;17.94;81.17
73143;BME280;61343;53.694;9.988;2022-09-09T10:04:38;100690.00;;;18.04;80.71
73143;BME280;61343;53.694;9.988;2022-09-09T10:07:20;100695.72;;;18.17;79.99
73143;BME280;61343;53.694;9.988;2022-09-09T10:09:53;100694.97;;;18.37;78.07
73143;BME280;61343;53.694;9.988;2022-09-09T10:18:05;100682.13;;;18.84;75.76
73143;BME280;61343;53.694;9.988;2022-09-09T10:20:46;100688.09;;;18.86;74.47
73143;BME280;61343;53.694;9.988;2022-09-09T10:36:40;100684.03;;;19.14;73.73
73143;BME280;61343;53.694;9.988;2022-09-09T10:39:25;100685.94;;;19.29;73.75
73143;BME280;61343;53.694;9.988;2022-09-09T10:42:17;100678.88;;;19.38;73.56
73143;BME280;61343;53.694;9.988;2022-09-09T10:47:35;100677.53;;;19.20;70.75
73143;BME280;61343;53.694;9.988;2022-09-09T10:50:40;100676.72;;;19.35;72.03
73143;BME280;61343;53.694;9.988;2022-09-09T10:55:42;100674.03;;;19.45;72.42
73143;BME280;61343;53.694;9.988;2022-09-09T10:58:14;100674.00;;;19.50;69.43
73143;BME280;61343;53.694;9.988;2022-09-09T11:00:46;100677.28;;;19.57;69.04
73143;BME280;61343;53.694;9.988;2022-09-09T11:03:24;100687.53;;;19.70;69.52
73143;BME280;61343;53.694;9.988;2022-09-09T11:06:05;100682.16;;;19.60;69.79
73143;BME280;61343;53.694;9.988;2022-09-09T11:08:33;100682.38;;;19.64;69.93
73143;BME280;61343;53.694;9.988;2022-09-09T11:11:04;100681.03;;;19.61;69.71
73143;BME280;61343;53.694;9.988;2022-09-09T11:18:48;100681.28;;;19.70;68.77
73143;BME280;61343;53.694;9.988;2022-09-09T11:21:21;100684.25;;;19.78;69.01
73143;BME280;61343;53.694;9.988;2022-09-09T11:23:57;100683.75;;;19.71;67.90
73143;BME280;61343;53.694;9.988;2022-09-09T11:27:00;100674.41;;;20.02;68.17
73143;BME280;61343;53.694;9.988;2022-09-09T11:32:03;100670.88;;;20.07;68.69
73143;BME280;61343;53.694;9.988;2022-09-09T11:34:37;100673.66;;;19.82;68.11
73143;BME280;61343;53.694;9.988;2022-09-09T11:40:24;100684.84;;;19.65;69.15
73143;BME280;61343;53.694;9.988;2022-09-09T11:42:48;100690.28;;;19.65;69.59
73143;BME280;61343;53.694;9.988;2022-09-09T11:45:22;100692.44;;;19.63;69.51
73143;BME280;61343;53.694;9.988;2022-09-09T11:47:53;100683.75;;;19.71;67.43
73143;BME280;61343;53.694;9.988;2022-09-09T11:52:46;100684.16;;;20.09;67.42
73143;BME280;61343;53.694;9.988;2022-09-09T11:55:29;100689.00;;;20.17;68.03
73143;BME280;61343;53.694;9.988;2022-09-09T11:57:59;100682.50;;;20.28;66.94
73143;BME280;61343;53.694;9.988;2022-09-09T12:00:37;100689.53;;;20.29;67.88
73143;BME280;61343;53.694;9.988;2022-09-09T12:03:04;100687.38;;;20.21;66.28
73143;BME280;61343;53.694;9.988;2022-09-09T12:05:41;100687.41;;;20.11;66.45
73143;BME280;61343;53.694;9.988;2022-09-09T12:08:10;100687.09;;;20.27;66.22
73143;BME280;61343;53.694;9.988;2022-09-09T12:10:40;100677.56;;;20.35;67.15
73143;BME280;61343;53.694;9.988;2022-09-09T12:13:14;100681.19;;;20.64;66.95
73143;BME280;61343;53.694;9.988;2022-09-09T12:15:51;100671.38;;;20.68;68.40
73143;BME280;61343;53.694;9.988;2022-09-09T12:18:32;100674.19;;;20.53;67.84
73143;BME280;61343;53.694;9.988;2022-09-09T12:21:06;100680.53;;;20.38;68.16
73143;BME280;61343;53.694;9.988;2022-09-09T12:23:41;100675.94;;;20.24;68.91
73143;BME280;61343;53.694;9.988;2022-09-09T12:26:26;100665.19;;;20.03;68.20
73143;BME280;61343;53.694;9.988;2022-09-09T12:29:19;100677.34;;;20.11;69.73
73143;BME280;61343;53.694;9.988;2022-09-09T12:31:57;100676.03;;;20.03;70.15
73143;BME280;61343;53.694;9.988;2022-09-09T12:34:43;100678.34;;;19.66;70.51
73143;BME280;61343;53.694;9.988;2022-09-09T12:37:32;100675.63;;;19.66;71.14
73143;BME280;61343;53.694;9.988;2022-09-09T12:40:01;100686.97;;;19.83;71.31
73143;BME280;61343;53.694;9.988;2022-09-09T12:42:29;100679.34;;;19.85;70.67
73143;BME280;61343;53.694;9.988;2022-09-09T12:44:56;100677.47;;;19.76;71.43
73143;BME280;61343;53.694;9.988;2022-09-09T12:47:33;100676.72;;;19.60;71.29
73143;BME280;61343;53.694;9.988;2022-09-09T12:50:02;100688.09;;;19.67;71.13
73143;BME280;61343;53.694;9.988;2022-09-09T12:52:36;100678.31;;;19.61;71.68
73143;BME280;61343;53.694;9.988;2022-09-09T12:55:05;100678.59;;;19.65;71.64
73143;BME280;61343;53.694;9.988;2022-09-09T12:57:38;100682.13;;;19.65;71.80
73143;BME280;61343;53.694;9.988;2022-09-09T13:00:14;100680.47;;;19.69;71.71
73143;BME280;61343;53.694;9.988;2022-09-09T13:03:00;100681.56;;;19.73;71.77
73143;BME280;61343;53.694;9.988;2022-09-09T13:05:36;100676.41;;;19.67;71.86
73143;BME280;61343;53.694;9.988;2022-09-09T13:08:03;100685.66;;;19.61;72.86
73143;BME280;61343;53.694;9.988;2022-09-09T13:10:33;100688.38;;;19.66;73.30
73143;BME280;61343;53.694;9.988;2022-09-09T13:13:01;100678.88;;;19.58;73.69
73143;BME280;61343;53.694;9.988;2022-09-09T13:15:28;100681.03;;;19.71;73.76
73143;BME280;61343;53.694;9.988;2022-09-09T13:17:57;100681.34;;;19.60;74.08
73143;BME280;61343;53.694;9.988;2022-09-09T13:20:23;100670.22;;;19.51;75.34
73143;BME280;61343;53.694;9.988;2022-09-09T13:22:50;100674.28;;;19.38;76.80
73143;BME280;61343;53.694;9.988;2022-09-09T13:25:22;100680.50;;;19.29;78.56
73143;BME280;61343;53.694;9.988;2022-09-09T13:27:59;100690.25;;;18.84;80.77
73143;BME280;61343;53.694;9.988;2022-09-09T13:30:29;100695.09;;;18.67;82.68
73143;BME280;61343;53.694;9.988;2022-09-09T13:35:35;100687.97;;;18.41;86.08
73143;BME280;61343;53.694;9.988;2022-09-09T13:38:08;100692.81;;;18.29;87.07
73143;BME280;61343;53.694;9.988;2022-09-09T13:40:35;100705.66;;;17.97;87.91
73143;BME280;61343;53.694;9.988;2022-09-09T13:43:01;100719.25;;;17.65;90.06
73143;BME280;61343;53.694;9.988;2022-09-09T13:45:27;100726.84;;;17.36;91.20
73143;BME280;61343;53.694;9.988;2022-09-09T13:47:53;100726.59;;;17.38;92.75
73143;BME280;61343;53.694;9.988;2022-09-09T13:50:23;100750.13;;;16.84;89.93
73143;BME280;61343;53.694;9.988;2022-09-09T13:52:54;100736.88;;;16.55;92.22
73143;BME280;61343;53.694;9.988;2022-09-09T13:55:21;100746.03;;;16.54;92.56
73143;BME280;61343;53.694;9.988;2022-09-09T14:00:16;100749.47;;;16.28;93.73
73143;BME280;61343;53.694;9.988;2022-09-09T14:02:41;100747.84;;;16.49;94.73
73143;BME280;61343;53.694;9.988;2022-09-09T14:05:09;100737.44;;;16.57;94.97
73143;BME280;61343;53.694;9.988;2022-09-09T14:07:34;100726.63;;;16.57;94.65
73143;BME280;61343;53.694;9.988;2022-09-09T14:09:59;100735.38;;;16.48;95.74
73143;BME280;61343;53.694;9.988;2022-09-09T14:12:25;100723.63;;;16.54;95.90
73143;BME280;61343;53.694;9.988;2022-09-09T14:14:51;100717.06;;;16.50;95.17
73143;BME280;61343;53.694;9.988;2022-09-09T14:17:16;100723.94;;;16.57;95.49
73143;BME280;61343;53.694;9.988;2022-09-09T14:19:42;100721.72;;;16.54;94.89
73143;BME280;61343;53.694;9.988;2022-09-09T14:22:07;100716.09;;;16.56;94.63
73143;BME280;61343;53.694;9.988;2022-09-09T14:24:33;100716.47;;;16.64;95.21
73143;BME280;61343;53.694;9.988;2022-09-09T14:26:58;100712.75;;;16.70;95.04
73143;BME280;61343;53.694;9.988;2022-09-09T14:29:23;100713.75;;;16.64;94.97
73143;BME280;61343;53.694;9.988;2022-09-09T14:31:50;100712.25;;;16.73;95.23
73143;BME280;61343;53.694;9.988;2022-09-09T14:34:15;100710.09;;;16.76;95.26
73143;BME280;61343;53.694;9.988;2022-09-09T14:36:40;100701.94;;;16.70;95.26